Time;durP1;ratioP1;P1;durP2;ratioP2;P2;SDS_P1;SDS_P2;PMS_P1;PMS_P2;Temp;Humidity;BMP_temperature;BMP_pressure;BME280_temperature;BME280_humidity;BME280_pressure;Samples;Min_cycle;Max_cycle;Signal;HPM_P1;HPM_P2
2022/01/28 00:00:41;;;;;;;9.70;1.98;;;5.90;78.30;;;;;;5978851;23;92385;-71
2022/01/28 00:03:10;;;;;;;13.40;2.28;;;6.00;79.00;;;;;;5999424;23;93014;-71
2022/01/28 00:05:37;;;;;;;17.15;2.80;;;6.00;79.00;;;;;;6007955;23;92871;-71
2022/01/28 00:08:05;;;;;;;7.65;1.70;;;6.00;78.80;;;;;;5982898;23;92441;-71
2022/01/28 00:10:33;;;;;;;12.63;2.72;;;6.00;78.30;;;;;;6008096;23;92320;-71
2022/01/28 00:39:27;;;;;;;6.57;2.22;;;6.20;80.20;;;;;;6006900;23;94693;-71
2022/01/28 00:41:54;;;;;;;5.65;1.42;;;6.10;80.20;;;;;;6007756;23;93456;-71
2022/01/28 00:44:21;;;;;;;7.00;1.95;;;6.00;81.20;;;;;;6007824;23;94232;-71
2022/01/28 00:46:48;;;;;;;8.38;1.85;;;5.90;81.10;;;;;;6007522;23;92456;-71
2022/01/28 00:49:16;;;;;;;5.97;1.77;;;5.80;82.20;;;;;;6008204;23;92434;-71
2022/01/28 00:51:43;;;;;;;14.85;2.47;;;5.80;83.00;;;;;;5982648;23;92428;-71
2022/01/28 00:54:10;;;;;;;11.48;2.03;;;5.80;82.90;;;;;;6007935;23;92909;-71
2022/01/28 00:56:37;;;;;;;11.10;2.25;;;5.80;83.70;;;;;;5982092;23;94108;-71
2022/01/28 00:59:04;;;;;;;19.15;2.83;;;5.80;83.50;;;;;;6008137;23;92402;-71
2022/01/28 01:01:31;;;;;;;12.63;2.92;;;5.90;83.80;;;;;;5957954;23;92474;-70
2022/01/28 01:03:59;;;;;;;15.45;2.88;;;6.00;83.80;;;;;;6005650;23;95413;-71
2022/01/28 01:06:27;;;;;;;15.15;2.10;;;6.10;83.20;;;;;;6006871;23;116149;-71
2022/01/28 01:08:55;;;;;;;9.85;2.55;;;6.20;83.40;;;;;;5982303;23;92490;-71
2022/01/28 01:11:23;;;;;;;11.80;2.95;;;6.20;82.80;;;;;;5982215;23;92396;-71
2022/01/28 01:13:51;;;;;;;14.18;2.63;;;6.20;82.20;;;;;;6007710;23;93125;-71
2022/01/28 01:16:27;;;;;;;18.58;3.22;;;6.20;81.60;;;;;;6007862;23;92671;-71
2022/01/28 01:19:21;;;;;;;14.85;2.78;;;6.30;81.50;;;;;;6007677;23;92504;-71
2022/01/28 01:21:43;;;;;;;11.77;2.15;;;6.30;81.20;;;;;;6008136;23;91668;-71
2022/01/28 01:24:19;;;;;;;18.98;2.35;;;6.40;81.50;;;;;;6007733;23;92914;-71
2022/01/28 01:26:46;;;;;;;7.47;1.80;;;6.40;82.30;;;;;;6007568;23;92806;-71
2022/01/28 01:29:16;;;;;;;8.82;2.33;;;6.30;91.90;;;;;;6006351;23;94797;-71
2022/01/28 01:31:44;;;;;;;7.88;3.38;;;6.20;92.30;;;;;;5981542;23;92532;-72
2022/01/28 01:34:20;;;;;;;13.75;2.88;;;6.00;92.40;;;;;;6007792;23;93042;-71
2022/01/28 01:36:48;;;;;;;10.93;2.13;;;6.00;90.80;;;;;;6007471;23;92774;-71
2022/01/28 01:39:21;;;;;;;9.80;2.08;;;5.90;89.70;;;;;;6008011;23;92430;-71
2022/01/28 01:42:08;;;;;;;10.98;2.42;;;5.80;86.00;;;;;;5982090;23;92603;-71
2022/01/28 01:52:26;;;;;;;18.52;3.70;;;5.50;83.10;;;;;;6007626;23;92295;-71
2022/01/28 01:54:54;;;;;;;9.85;1.95;;;5.50;82.90;;;;;;5980166;23;96786;-71
2022/01/28 01:57:21;;;;;;;8.63;2.45;;;5.60;80.90;;;;;;5981300;23;108141;-71
2022/01/28 01:59:48;;;;;;;12.93;2.38;;;5.60;80.40;;;;;;6007308;23;92349;-71
2022/01/28 02:02:15;;;;;;;13.90;2.50;;;5.60;80.30;;;;;;5987130;23;92425;-71
2022/01/28 02:04:42;;;;;;;14.02;2.58;;;5.70;79.00;;;;;;6007499;23;92947;-71
2022/01/28 02:07:13;;;;;;;11.93;2.83;;;5.70;79.20;;;;;;6007348;23;93023;-71
2022/01/28 02:09:40;;;;;;;14.43;2.78;;;5.70;79.30;;;;;;6006210;23;92530;-71
2022/01/28 02:12:08;;;;;;;14.10;3.10;;;5.70;79.60;;;;;;6005286;23;92003;-71
2022/01/28 02:14:35;;;;;;;12.48;2.60;;;5.70;78.20;;;;;;6005451;23;92957;-71
2022/01/28 02:17:03;;;;;;;13.70;2.75;;;5.80;78.20;;;;;;6006791;23;92836;-71
2022/01/28 02:19:30;;;;;;;14.82;2.88;;;5.80;78.90;;;;;;6005867;23;94772;-71
2022/01/28 02:21:57;;;;;;;12.57;2.63;;;5.90;79.80;;;;;;6007315;23;92967;-71
2022/01/28 02:24:30;;;;;;;16.27;2.83;;;6.00;80.80;;;;;;6005573;23;94096;-71
2022/01/28 02:26:57;;;;;;;14.63;2.83;;;6.00;78.90;;;;;;6007049;23;93011;-71
2022/01/28 02:29:30;;;;;;;13.70;3.15;;;6.10;78.50;;;;;;6007310;23;92857;-71
2022/01/28 02:32:03;;;;;;;14.10;3.10;;;6.20;78.50;;;;;;6006926;23;92471;-71
2022/01/28 02:34:30;;;;;;;18.25;2.80;;;6.30;79.40;;;;;;6007141;23;92933;-71
2022/01/28 02:36:57;;;;;;;13.40;2.42;;;6.30;79.30;;;;;;6007311;23;92831;-71
2022/01/28 02:39:24;;;;;;;20.50;3.92;;;6.40;78.90;;;;;;6007040;23;98392;-71
2022/01/28 02:41:59;;;;;;;12.50;3.28;;;6.40;79.20;;;;;;6005379;23;92411;-71
2022/01/28 02:44:48;;;;;;;16.90;2.55;;;6.40;79.60;;;;;;6005752;23;95670;-71
2022/01/28 02:47:28;;;;;;;21.27;3.22;;;6.30;79.30;;;;;;6005490;23;95169;-71
2022/01/28 02:49:55;;;;;;;11.70;2.53;;;6.40;79.20;;;;;;6007228;23;92415;-72
2022/01/28 02:52:32;;;;;;;13.55;3.65;;;6.50;75.40;;;;;;6006834;23;100587;-71
2022/01/28 02:55:00;;;;;;;17.42;3.50;;;6.60;75.00;;;;;;6006936;23;93087;-71
2022/01/28 02:57:27;;;;;;;11.35;2.42;;;6.70;74.70;;;;;;6005255;23;93082;-71
2022/01/28 02:59:54;;;;;;;10.68;2.08;;;6.70;75.30;;;;;;6007147;23;92759;-71
2022/01/28 03:02:21;;;;;;;16.58;3.53;;;6.70;75.10;;;;;;6004268;23;91644;-71
2022/01/28 03:07:24;;;;;;;14.32;2.85;;;6.80;76.30;;;;;;6007035;23;92642;-71
2022/01/28 03:12:47;;;;;;;12.75;2.70;;;6.70;76.00;;;;;;6007416;23;93192;-71
2022/01/28 03:15:19;;;;;;;14.52;2.30;;;6.70;75.80;;;;;;6006716;23;93009;-72
2022/01/28 03:18:06;;;;;;;10.55;2.10;;;6.70;76.30;;;;;;6006972;23;92672;-71
2022/01/28 03:20:44;;;;;;;9.65;3.15;;;6.70;76.90;;;;;;5986101;23;92453;-71
2022/01/28 03:23:11;;;;;;;11.95;2.80;;;6.50;78.30;;;;;;5981459;23;92516;-71
2022/01/28 03:25:43;;;;;;;13.45;2.92;;;6.50;78.70;;;;;;6007189;23;93089;-71
2022/01/28 03:28:11;;;;;;;18.88;3.53;;;6.40;79.60;;;;;;6008455;23;92627;-71
2022/01/28 03:30:38;;;;;;;12.25;2.97;;;6.50;79.40;;;;;;6008126;23;92315;-71
2022/01/28 03:33:05;;;;;;;14.35;2.67;;;6.40;78.90;;;;;;5959141;23;92426;-71
2022/01/28 03:35:34;;;;;;;12.32;3.33;;;6.50;78.50;;;;;;6006670;23;95403;-71
2022/01/28 03:38:04;;;;;;;21.33;3.85;;;6.50;78.20;;;;;;6007607;23;95081;-71
2022/01/28 03:40:35;;;;;;;18.90;3.22;;;6.60;78.20;;;;;;5982630;23;92392;-71
2022/01/28 03:43:06;;;;;;;15.40;3.72;;;6.60;77.80;;;;;;6008169;23;92449;-71
2022/01/28 03:45:34;;;;;;;18.98;3.40;;;6.60;77.70;;;;;;5959064;23;94292;-71
2022/01/28 03:48:01;;;;;;;15.73;3.47;;;6.70;77.30;;;;;;6007789;23;92708;-71
2022/01/28 03:50:32;;;;;;;13.73;3.28;;;6.70;76.00;;;;;;6007723;23;100975;-71
2022/01/28 03:53:05;;;;;;;15.70;3.75;;;6.80;76.30;;;;;;6008765;23;91688;-71
2022/01/28 03:55:33;;;;;;;19.25;4.47;;;6.80;75.60;;;;;;6008077;23;94675;-71
2022/01/28 03:58:00;;;;;;;12.35;2.95;;;6.80;75.50;;;;;;5958933;23;94031;-71
2022/01/28 04:00:30;;;;;;;18.30;3.80;;;6.80;74.60;;;;;;5981750;23;94829;-71
2022/01/28 04:03:37;;;;;;;14.02;2.85;;;6.90;73.70;;;;;;6004472;23;92440;-71
2022/01/28 04:11:33;;;;;;;16.25;3.53;;;6.90;70.80;;;;;;5982571;23;92355;-71
2022/01/28 04:14:17;;;;;;;15.95;3.33;;;6.90;71.40;;;;;;6008304;23;92429;-71
2022/01/28 04:19:23;;;;;;;15.93;3.50;;;6.90;70.80;;;;;;5983955;23;96512;-71
2022/01/28 04:21:50;;;;;;;10.95;3.50;;;6.90;69.90;;;;;;6008426;23;92680;-71
2022/01/28 04:24:17;;;;;;;11.45;2.42;;;6.90;69.30;;;;;;6007802;23;92765;-71
2022/01/28 04:26:44;;;;;;;14.88;2.63;;;6.90;68.70;;;;;;5981210;23;97909;-71
2022/01/28 04:29:13;;;;;;;10.98;2.50;;;7.00;68.10;;;;;;6007425;23;95152;-71
2022/01/28 04:31:43;;;;;;;11.98;2.30;;;6.90;68.20;;;;;;6008349;23;92295;-71
2022/01/28 04:34:11;;;;;;;14.02;3.13;;;6.90;68.90;;;;;;6008177;23;92448;-72
2022/01/28 04:36:48;;;;;;;9.25;2.45;;;6.90;69.60;;;;;;5981747;23;103124;-71
2022/01/28 04:39:28;;;;;;;14.27;3.70;;;6.90;68.30;;;;;;6007746;23;92914;-71
2022/01/28 04:44:31;;;;;;;12.05;2.28;;;6.90;69.40;;;;;;6008287;23;91873;-71
2022/01/28 04:47:11;;;;;;;11.95;3.33;;;6.90;70.20;;;;;;5982387;23;94165;-71
2022/01/28 04:49:51;;;;;;;16.88;3.35;;;6.90;69.70;;;;;;6007935;23;93036;-71
2022/01/28 04:55:05;;;;;;;14.23;3.17;;;7.00;69.40;;;;;;6008175;23;92407;-71
2022/01/28 04:58:27;;;;;;;10.32;2.92;;;6.90;69.70;;;;;;6007650;23;92316;-71
2022/01/28 05:03:55;;;;;;;14.43;2.80;;;7.00;69.40;;;;;;5992145;23;92941;-71
2022/01/28 05:27:12;;;;;;;10.25;2.45;;;7.00;68.80;;;;;;6007626;23;92501;-71
2022/01/28 05:29:39;;;;;;;13.18;2.80;;;6.90;68.70;;;;;;6007731;23;93153;-71
2022/01/28 05:32:10;;;;;;;16.88;3.13;;;6.90;69.40;;;;;;6007905;23;92792;-71
2022/01/28 05:34:38;;;;;;;19.08;2.85;;;6.80;69.90;;;;;;6007760;23;92769;-71
2022/01/28 05:37:07;;;;;;;14.60;2.75;;;6.70;70.40;;;;;;6006554;23;91678;-71
2022/01/28 05:39:34;;;;;;;17.63;3.55;;;6.70;70.20;;;;;;6005681;23;95625;-71
2022/01/28 05:42:02;;;;;;;21.85;3.42;;;6.70;70.80;;;;;;6005906;23;93906;-71
2022/01/28 05:44:29;;;;;;;21.00;3.47;;;6.60;72.00;;;;;;6006151;23;94726;-71
2022/01/28 05:47:01;;;;;;;21.45;4.63;;;6.70;72.00;;;;;;6007197;23;104861;-71
2022/01/28 05:49:28;;;;;;;14.98;2.92;;;6.70;72.40;;;;;;6006771;23;92920;-71
2022/01/28 05:51:56;;;;;;;7.55;2.60;;;6.80;71.80;;;;;;6007368;23;92764;-71
2022/01/28 05:54:23;;;;;;;12.35;2.95;;;6.80;71.90;;;;;;6006141;23;92448;-71
2022/01/28 05:56:49;;;;;;;17.08;3.38;;;6.70;71.30;;;;;;6007823;23;92476;-71
2022/01/28 05:59:19;;;;;;;18.00;2.92;;;6.80;71.80;;;;;;6007199;23;100431;-72
2022/01/28 06:01:46;;;;;;;18.10;4.15;;;6.80;71.50;;;;;;6007722;23;92765;-71
2022/01/28 06:04:15;;;;;;;16.90;3.72;;;6.90;71.40;;;;;;6007530;23;92351;-71
2022/01/28 06:06:43;;;;;;;23.52;4.10;;;6.80;71.80;;;;;;5981810;23;92790;-71
2022/01/28 06:09:10;;;;;;;19.67;4.15;;;6.80;71.80;;;;;;6005638;23;95452;-71
2022/01/28 06:11:38;;;;;;;20.02;4.60;;;6.80;71.40;;;;;;6007063;23;95135;-71
2022/01/28 06:14:06;;;;;;;12.30;2.75;;;6.80;72.50;;;;;;6007659;23;92404;-71
2022/01/28 06:16:33;;;;;;;20.05;2.75;;;6.90;71.60;;;;;;6007400;23;92406;-71
2022/01/28 06:19:00;;;;;;;18.90;3.45;;;6.80;71.70;;;;;;6007310;23;93057;-71
2022/01/28 06:21:27;;;;;;;9.88;2.55;;;6.80;71.50;;;;;;6004623;23;110685;-71
2022/01/28 06:23:55;;;;;;;17.90;3.33;;;6.80;72.00;;;;;;6007430;23;92438;-71
2022/01/28 06:26:22;;;;;;;19.83;3.55;;;6.90;71.30;;;;;;6007659;23;91715;-71
2022/01/28 06:28:49;;;;;;;18.35;2.97;;;6.90;71.60;;;;;;5981942;23;92955;-71
2022/01/28 06:31:16;;;;;;;20.05;3.17;;;6.80;71.40;;;;;;6007206;23;92732;-71
2022/01/28 06:33:47;;;;;;;16.75;2.92;;;6.90;72.20;;;;;;6005949;23;94783;-72
2022/01/28 06:36:14;;;;;;;15.88;3.33;;;6.90;71.80;;;;;;5981719;23;92450;-71
2022/01/28 06:38:41;;;;;;;9.75;2.00;;;6.80;71.50;;;;;;6006895;23;92885;-71
2022/01/28 06:41:08;;;;;;;19.45;3.33;;;6.80;71.20;;;;;;6007282;23;92685;-71
2022/01/28 06:43:38;;;;;;;17.48;2.45;;;6.80;71.70;;;;;;5980790;23;92519;-71
2022/01/28 06:46:05;;;;;;;14.18;3.33;;;6.80;71.60;;;;;;6006228;23;92406;-71
2022/01/28 06:48:32;;;;;;;18.95;3.28;;;6.80;71.60;;;;;;6005872;23;109984;-71
2022/01/28 06:51:00;;;;;;;11.60;2.63;;;6.80;71.80;;;;;;6007393;23;92681;-71
2022/01/28 06:53:27;;;;;;;18.05;3.75;;;6.90;71.30;;;;;;6006861;23;92442;-71
2022/01/28 06:55:54;;;;;;;16.10;3.42;;;6.80;71.80;;;;;;6007252;23;92424;-71
2022/01/28 06:58:21;;;;;;;15.40;2.72;;;6.70;72.60;;;;;;6005592;23;96118;-71
2022/01/28 07:00:48;;;;;;;19.52;3.80;;;6.70;72.80;;;;;;6007857;23;95166;-71
2022/01/28 07:03:15;;;;;;;12.57;2.80;;;6.70;73.10;;;;;;5991355;23;92579;-71
2022/01/28 07:05:43;;;;;;;14.88;2.63;;;6.60;73.00;;;;;;6008477;23;92456;-71
2022/01/28 07:08:10;;;;;;;12.88;3.13;;;6.60;73.50;;;;;;6006406;23;94280;-71
2022/01/28 07:10:37;;;;;;;12.63;3.25;;;6.70;72.90;;;;;;6007336;23;110920;-71
2022/01/28 07:13:04;;;;;;;17.50;3.17;;;6.70;72.50;;;;;;6008299;23;92296;-71
2022/01/28 07:15:32;;;;;;;18.27;3.40;;;6.70;72.60;;;;;;6008687;23;91681;-71
2022/01/28 07:18:03;;;;;;;18.48;3.45;;;6.60;71.20;;;;;;6008257;23;93278;-71
2022/01/28 07:20:30;;;;;;;12.88;3.22;;;6.70;70.80;;;;;;6008179;23;92755;-71
2022/01/28 07:22:58;;;;;;;12.75;2.38;;;6.70;70.80;;;;;;6007223;23;94875;-71
2022/01/28 07:25:25;;;;;;;14.75;3.00;;;6.60;70.30;;;;;;6005277;23;92418;-70
2022/01/28 07:27:52;;;;;;;11.10;1.95;;;6.60;69.90;;;;;;6007650;23;92954;-71
2022/01/28 07:30:20;;;;;;;11.25;2.75;;;6.50;69.90;;;;;;6006530;23;94084;-71
2022/01/28 07:32:49;;;;;;;19.35;2.97;;;6.50;70.30;;;;;;6008550;23;93104;-71
2022/01/28 07:35:16;;;;;;;17.90;3.85;;;6.50;70.40;;;;;;6008626;23;92404;-71
2022/01/28 07:37:44;;;;;;;14.05;2.95;;;6.50;70.90;;;;;;6007834;23;94012;-71
2022/01/28 07:40:11;;;;;;;24.58;3.00;;;6.50;70.30;;;;;;6008780;23;92740;-71
2022/01/28 07:42:39;;;;;;;20.58;3.53;;;6.50;70.80;;;;;;6007775;23;97699;-71
2022/01/28 07:45:08;;;;;;;9.75;2.70;;;6.60;71.40;;;;;;6008444;23;92408;-71
2022/01/28 07:47:37;;;;;;;11.55;2.83;;;6.60;70.30;;;;;;6006571;23;95405;-71
2022/01/28 07:50:06;;;;;;;14.07;3.13;;;6.60;70.50;;;;;;6007965;23;95296;-72
2022/01/28 07:52:35;;;;;;;15.45;3.08;;;6.60;71.00;;;;;;6008631;23;92384;-71
2022/01/28 07:55:06;;;;;;;16.02;2.47;;;6.60;71.00;;;;;;6008413;23;92422;-71
2022/01/28 07:57:34;;;;;;;14.18;3.63;;;6.60;70.90;;;;;;6008308;23;93125;-71
2022/01/28 08:00:03;;;;;;;12.70;3.20;;;6.60;69.90;;;;;;6008037;23;92762;-71
2022/01/28 08:02:38;;;;;;;16.77;3.33;;;6.60;70.40;;;;;;6005261;23;92892;-71
2022/01/28 08:05:05;;;;;;;17.20;3.25;;;6.50;70.50;;;;;;5980347;23;91591;-71
2022/01/28 08:07:32;;;;;;;23.88;3.90;;;6.50;70.70;;;;;;5979494;23;93113;-71
2022/01/28 08:09:59;;;;;;;14.23;2.20;;;6.50;70.80;;;;;;5978901;23;100492;-71
2022/01/28 08:12:26;;;;;;;27.50;3.60;;;6.50;71.10;;;;;;5978250;23;94823;-71
2022/01/28 08:14:53;;;;;;;16.67;3.58;;;6.60;71.10;;;;;;5954074;23;92491;-71
2022/01/28 08:17:20;;;;;;;15.07;3.22;;;6.60;71.00;;;;;;5979387;23;92928;-71
2022/01/28 08:19:47;;;;;;;26.00;4.18;;;6.60;70.90;;;;;;5979342;23;92750;-72
2022/01/28 08:22:14;;;;;;;18.67;3.10;;;6.60;70.90;;;;;;5980014;23;92798;-71
2022/01/28 08:24:41;;;;;;;18.67;2.60;;;6.70;71.40;;;;;;5954108;23;92514;-71
2022/01/28 08:27:08;;;;;;;18.05;3.50;;;6.80;71.50;;;;;;5979591;23;93082;-71
2022/01/28 08:29:35;;;;;;;15.77;3.28;;;6.80;71.30;;;;;;5980111;23;92736;-71
2022/01/28 08:32:02;;;;;;;15.77;3.35;;;6.90;71.20;;;;;;5979381;23;92433;-71
2022/01/28 08:34:29;;;;;;;24.85;3.58;;;6.90;71.00;;;;;;5954960;23;92348;-71
2022/01/28 08:36:55;;;;;;;12.13;3.42;;;7.00;71.30;;;;;;5977646;23;95333;-71
2022/01/28 08:39:24;;;;;;;18.75;3.95;;;7.10;70.80;;;;;;5979249;23;95325;-71
2022/01/28 08:41:51;;;;;;;17.48;2.90;;;7.20;70.60;;;;;;5978762;23;104686;-72
2022/01/28 08:44:18;;;;;;;19.23;3.25;;;7.20;71.40;;;;;;5979627;23;92395;-71
2022/01/28 08:46:45;;;;;;;18.13;3.28;;;7.20;71.20;;;;;;5953917;23;96891;-71
2022/01/28 08:49:12;;;;;;;15.27;4.18;;;7.20;70.90;;;;;;5979428;23;92897;-71
2022/01/28 08:51:39;;;;;;;25.67;3.97;;;7.20;71.00;;;;;;5979512;23;92469;-71
2022/01/28 08:54:06;;;;;;;20.25;3.67;;;7.20;71.10;;;;;;5979656;23;91607;-72
2022/01/28 08:56:33;;;;;;;17.70;3.05;;;7.30;71.50;;;;;;5979735;23;92331;-71
2022/01/28 08:59:09;;;;;;;22.77;4.00;;;7.30;71.50;;;;;;5956443;23;92662;-71
2022/01/28 09:01:36;;;;;;;22.02;3.60;;;7.30;71.60;;;;;;5952922;23;94937;-71
2022/01/28 09:04:04;;;;;;;24.98;3.90;;;7.30;72.10;;;;;;5995058;23;92568;-71
2022/01/28 09:06:31;;;;;;;17.00;3.20;;;7.30;72.00;;;;;;6007561;23;93006;-71
2022/01/28 09:09:00;;;;;;;20.45;3.88;;;7.30;72.10;;;;;;6006870;23;105613;-71
2022/01/28 09:13:55;;;;;;;24.55;3.00;;;7.40;72.00;;;;;;5982095;23;92453;-71
2022/01/28 09:16:22;;;;;;;25.65;3.78;;;7.40;71.50;;;;;;6007792;23;93094;-71
2022/01/28 09:18:50;;;;;;;21.88;4.10;;;7.50;71.80;;;;;;6007721;23;92777;-71
2022/01/28 09:21:18;;;;;;;19.52;3.38;;;7.60;72.00;;;;;;6007725;23;92419;-71
2022/01/28 09:23:46;;;;;;;18.45;3.22;;;7.70;71.50;;;;;;6007203;23;92479;-71
2022/01/28 09:26:14;;;;;;;18.42;4.30;;;7.90;71.80;;;;;;6006314;23;95527;-71
2022/01/28 09:28:41;;;;;;;17.52;4.00;;;8.20;70.90;;;;;;6007691;23;95234;-71
2022/01/28 09:31:08;;;;;;;23.08;3.78;;;8.30;70.60;;;;;;5981861;23;92480;-71
2022/01/28 09:33:37;;;;;;;20.88;3.72;;;8.40;70.40;;;;;;6007843;23;92438;-71
2022/01/28 09:36:07;;;;;;;18.67;3.75;;;8.50;70.10;;;;;;5981518;23;94018;-71
2022/01/28 09:38:36;;;;;;;17.70;3.30;;;8.50;69.30;;;;;;6007636;23;92856;-71
2022/01/28 09:41:05;;;;;;;18.85;3.42;;;8.50;69.40;;;;;;6007152;23;101801;-72
2022/01/28 09:43:33;;;;;;;24.55;3.60;;;8.60;69.50;;;;;;6008271;23;91742;-71
2022/01/28 09:46:01;;;;;;;13.10;2.97;;;8.70;69.30;;;;;;6007610;23;92862;-72
2022/01/28 09:48:28;;;;;;;17.80;3.10;;;8.80;68.40;;;;;;6007532;23;93598;-71
2022/01/28 09:50:59;;;;;;;26.45;4.00;;;8.80;67.00;;;;;;6006023;23;94785;-71
2022/01/28 09:53:26;;;;;;;22.65;3.25;;;8.90;67.20;;;;;;6007838;23;92424;-71
2022/01/28 09:55:53;;;;;;;17.27;3.67;;;8.90;67.40;;;;;;6007465;23;93092;-71
2022/01/28 09:58:20;;;;;;;18.10;3.35;;;8.90;67.10;;;;;;6007323;23;92924;-72
2022/01/28 10:00:47;;;;;;;19.98;4.25;;;8.90;67.60;;;;;;6007842;23;93114;-71
2022/01/28 10:03:16;;;;;;;18.85;3.97;;;9.00;67.30;;;;;;5983228;23;92497;-71
2022/01/28 10:05:51;;;;;;;14.35;2.60;;;9.10;67.20;;;;;;6007349;23;93081;-72
2022/01/28 10:08:23;;;;;;;22.10;3.78;;;9.00;64.80;;;;;;6007875;23;93880;-71
2022/01/28 10:11:01;;;;;;;24.80;3.70;;;9.10;65.90;;;;;;6007429;23;92399;-71
2022/01/28 10:13:36;;;;;;;18.35;3.20;;;9.30;66.40;;;;;;6007667;23;92384;-71
2022/01/28 10:16:11;;;;;;;12.98;3.15;;;9.30;65.90;;;;;;6005564;23;95471;-71
2022/01/28 10:18:43;;;;;;;14.77;2.65;;;9.30;64.20;;;;;;5981873;23;96477;-71
2022/01/28 10:21:23;;;;;;;16.50;2.80;;;9.30;65.90;;;;;;6007127;23;92449;-71
2022/01/28 10:24:03;;;;;;;16.55;4.20;;;9.30;64.90;;;;;;6007751;23;92330;-72
2022/01/28 10:26:38;;;;;;;15.73;3.30;;;9.20;64.80;;;;;;5982453;23;92409;-71
2022/01/28 10:29:14;;;;;;;18.05;3.22;;;9.30;65.60;;;;;;5981605;23;93927;-72
2022/01/28 10:31:48;;;;;;;22.58;3.42;;;9.30;65.40;;;;;;6007622;23;92326;-72
2022/01/28 10:34:23;;;;;;;27.27;4.47;;;9.30;66.00;;;;;;5982437;23;91667;-71
2022/01/28 10:37:05;;;;;;;17.83;2.90;;;9.30;65.40;;;;;;6008551;23;93062;-71
2022/01/28 10:39:43;;;;;;;17.67;4.07;;;9.30;66.30;;;;;;6008257;23;92860;-71
2022/01/28 10:42:13;;;;;;;15.95;4.20;;;9.30;66.10;;;;;;6006464;23;94749;-71
2022/01/28 10:44:56;;;;;;;21.15;4.90;;;9.10;65.60;;;;;;5983401;23;92460;-72
2022/01/28 10:47:46;;;;;;;15.82;3.35;;;9.10;66.10;;;;;;6008063;23;96730;-71
2022/01/28 10:50:26;;;;;;;17.80;3.63;;;9.10;66.50;;;;;;6008166;23;92731;-71
2022/01/28 10:53:02;;;;;;;16.77;3.63;;;9.00;66.30;;;;;;5982993;23;92419;-71
2022/01/28 10:55:32;;;;;;;17.02;3.53;;;9.00;66.20;;;;;;6008650;23;92373;-72
2022/01/28 10:58:07;;;;;;;15.85;3.47;;;9.20;66.60;;;;;;6008403;23;93239;-71
2022/01/28 11:00:47;;;;;;;17.13;3.50;;;9.30;65.60;;;;;;6008777;23;92820;-71
2022/01/28 11:03:16;;;;;;;13.52;2.58;;;9.40;65.40;;;;;;6007952;23;92443;-71
2022/01/28 11:05:44;;;;;;;18.70;3.08;;;9.40;65.00;;;;;;6008682;23;92427;-71
2022/01/28 11:08:13;;;;;;;13.98;3.13;;;9.50;64.70;;;;;;6006789;23;95671;-71
2022/01/28 11:10:41;;;;;;;19.60;3.42;;;9.50;64.50;;;;;;6008243;23;95081;-71
2022/01/28 11:13:09;;;;;;;17.75;3.08;;;9.60;64.50;;;;;;6008475;23;92431;-71
2022/01/28 11:15:37;;;;;;;19.30;3.15;;;9.60;65.70;;;;;;5982529;23;97991;-71
2022/01/28 11:18:07;;;;;;;20.10;3.40;;;9.70;65.20;;;;;;5982341;23;94106;-71
2022/01/28 11:20:50;;;;;;;20.00;3.42;;;9.90;64.80;;;;;;5982727;23;94745;-72
2022/01/28 11:23:50;;;;;;;18.55;3.13;;;10.10;64.80;;;;;;6008185;23;92468;-71
2022/01/28 11:26:34;;;;;;;20.80;3.47;;;10.20;64.40;;;;;;6008478;23;91741;-71
2022/01/28 11:29:17;;;;;;;10.60;3.53;;;10.20;63.20;;;;;;5982801;23;94115;-72
2022/01/28 11:31:47;;;;;;;18.92;4.43;;;10.30;64.00;;;;;;6007994;23;95580;-72
2022/01/28 11:34:25;;;;;;;19.40;3.67;;;10.30;64.10;;;;;;6006927;23;94734;-72
2022/01/28 11:36:54;;;;;;;27.42;4.18;;;10.50;63.70;;;;;;6008462;23;92412;-72
2022/01/28 11:39:50;;;;;;;22.92;3.70;;;10.40;64.30;;;;;;5959239;23;94319;-71
2022/01/28 11:42:23;;;;;;;21.02;3.83;;;10.40;63.00;;;;;;6002179;23;92817;-72
2022/01/28 11:44:50;;;;;;;16.00;2.83;;;10.30;64.10;;;;;;5983144;23;92446;-72
2022/01/28 11:47:27;;;;;;;22.08;3.28;;;10.30;63.20;;;;;;6007662;23;92742;-72
2022/01/28 11:50:12;;;;;;;15.77;3.85;;;10.20;64.00;;;;;;5982752;23;96030;-72
2022/01/28 11:52:48;;;;;;;16.55;3.15;;;10.20;64.00;;;;;;6008660;23;92854;-72
2022/01/28 11:55:15;;;;;;;16.33;3.63;;;10.20;63.90;;;;;;6008519;23;92791;-72
2022/01/28 11:57:55;;;;;;;17.58;3.40;;;10.10;63.00;;;;;;5982583;23;92453;-72
2022/01/28 12:04:49;;;;;;;14.70;3.17;;;10.10;63.30;;;;;;6004797;23;94669;-72
2022/01/28 12:07:22;;;;;;;18.85;3.75;;;10.10;63.50;;;;;;6007944;23;92507;-72
2022/01/28 12:09:55;;;;;;;20.33;2.75;;;10.30;62.90;;;;;;6008352;23;92387;-72
2022/01/28 12:12:45;;;;;;;19.83;3.30;;;10.30;62.60;;;;;;5982004;23;94059;-72
2022/01/28 12:15:14;;;;;;;20.10;3.03;;;10.50;62.00;;;;;;5982604;23;93973;-73
2022/01/28 12:17:49;;;;;;;16.60;4.03;;;10.50;61.80;;;;;;6008360;23;92314;-72
2022/01/28 12:20:50;;;;;;;13.77;2.90;;;10.60;61.70;;;;;;6008828;23;91670;-72
2022/01/28 12:23:18;;;;;;;15.63;3.53;;;10.70;61.70;;;;;;5982836;23;92962;-72
2022/01/28 12:25:45;;;;;;;17.67;3.38;;;10.70;61.30;;;;;;6008336;23;93052;-67
2022/01/28 12:28:22;;;;;;;18.27;3.15;;;10.80;61.30;;;;;;6006487;23;94702;-67
2022/01/28 12:30:51;;;;;;;17.15;2.75;;;11.00;60.90;;;;;;6007945;23;92401;-67
2022/01/28 12:33:22;;;;;;;21.08;3.53;;;11.00;60.30;;;;;;6007605;23;92882;-67
2022/01/28 12:35:51;;;;;;;12.38;2.80;;;10.90;60.60;;;;;;6008230;23;92618;-68
2022/01/28 12:38:25;;;;;;;20.10;3.78;;;10.90;60.60;;;;;;5982213;23;92494;-67
2022/01/28 12:40:54;;;;;;;13.35;3.30;;;11.00;60.30;;;;;;6008215;23;92500;-67
2022/01/28 12:43:24;;;;;;;17.48;3.22;;;10.90;60.20;;;;;;5981776;23;94042;-67
2022/01/28 12:46:04;;;;;;;16.08;3.33;;;10.90;61.00;;;;;;6008473;23;92826;-67
2022/01/28 12:48:32;;;;;;;14.65;3.20;;;11.00;60.70;;;;;;6007497;23;92694;-68
2022/01/28 12:51:01;;;;;;;13.85;3.15;;;11.00;61.60;;;;;;6008066;23;92397;-68
2022/01/28 12:53:39;;;;;;;17.58;3.58;;;11.00;60.50;;;;;;5980477;23;97491;-72
2022/01/28 12:56:08;;;;;;;17.23;4.13;;;11.00;60.70;;;;;;6006880;23;95189;-71
2022/01/28 12:58:36;;;;;;;18.60;3.20;;;11.00;60.70;;;;;;5982993;23;92346;-72
2022/01/28 13:01:11;;;;;;;17.80;3.85;;;11.00;60.10;;;;;;6008194;23;92435;-73
2022/01/28 13:03:57;;;;;;;16.85;3.20;;;11.00;60.20;;;;;;6006231;23;94380;-73
2022/01/28 13:09:17;;;;;;;20.20;3.47;;;11.30;59.90;;;;;;6007911;23;92284;-68
2022/01/28 13:11:45;;;;;;;19.30;4.20;;;11.30;59.50;;;;;;5959918;23;91776;-73
2022/01/28 13:14:15;;;;;;;17.13;3.20;;;11.30;59.10;;;;;;6007278;23;93073;-68
2022/01/28 13:16:44;;;;;;;15.18;3.22;;;11.30;58.90;;;;;;6007599;23;93880;-72
2022/01/28 13:19:13;;;;;;;16.50;2.88;;;11.40;58.80;;;;;;6006510;23;95267;-73
2022/01/28 13:21:42;;;;;;;19.48;3.63;;;11.40;58.10;;;;;;5982121;23;92405;-68
2022/01/28 13:24:19;;;;;;;11.23;2.50;;;11.40;58.30;;;;;;6007649;23;93031;-73
2022/01/28 13:27:05;;;;;;;12.38;3.00;;;11.30;58.00;;;;;;6007741;23;92819;-68
2022/01/28 13:29:32;;;;;;;17.75;3.25;;;11.10;58.80;;;;;;6007520;23;92452;-68
2022/01/28 13:32:05;;;;;;;17.35;2.95;;;11.00;59.10;;;;;;6008041;23;92447;-73
2022/01/28 13:34:55;;;;;;;14.03;3.47;;;10.90;59.20;;;;;;6007306;23;92492;-73
2022/01/28 13:37:42;;;;;;;19.67;3.08;;;10.80;59.80;;;;;;6007547;23;95828;-73
2022/01/28 13:40:18;;;;;;;16.42;2.40;;;10.70;60.00;;;;;;6007667;23;92403;-72
2022/01/28 13:43:08;;;;;;;13.35;2.80;;;10.70;60.40;;;;;;6008042;23;92402;-72
2022/01/28 13:45:41;;;;;;;12.57;3.13;;;10.60;60.10;;;;;;5991789;23;95467;-72
2022/01/28 13:48:18;;;;;;;17.08;2.67;;;10.40;61.50;;;;;;5978899;23;96457;-72
2022/01/28 13:50:47;;;;;;;10.23;2.50;;;10.30;61.30;;;;;;5985636;23;92580;-71
2022/01/28 13:53:34;;;;;;;14.25;3.20;;;10.10;61.40;;;;;;5987158;23;92413;-73
2022/01/28 13:56:02;;;;;;;20.98;3.80;;;10.10;62.00;;;;;;5988079;23;93056;-72
2022/01/28 13:58:43;;;;;;;19.77;3.42;;;10.10;61.90;;;;;;5961473;23;93924;-71
2022/01/28 14:01:12;;;;;;;11.77;2.80;;;10.20;62.30;;;;;;4878473;23;10000726;-72
2022/01/28 14:03:47;;;;;;;18.63;4.03;;;10.20;62.30;;;;;;5975481;23;98315;-73
2022/01/28 14:06:19;;;;;;;17.02;2.63;;;10.30;62.30;;;;;;5986689;23;92351;-75
2022/01/28 14:09:20;;;;;;;14.35;2.85;;;10.40;62.10;;;;;;5986559;23;93376;-74
2022/01/28 14:11:51;;;;;;;16.97;2.97;;;10.30;62.40;;;;;;5984284;23;95494;-72
2022/01/28 14:14:34;;;;;;;11.27;2.70;;;10.20;62.40;;;;;;5987451;23;95148;-73
2022/01/28 14:17:09;;;;;;;12.73;3.10;;;10.30;62.70;;;;;;5988157;23;93254;-72
2022/01/28 14:19:41;;;;;;;16.95;4.00;;;10.30;62.80;;;;;;5986449;23;92414;-72
2022/01/28 14:22:12;;;;;;;20.13;3.80;;;10.30;62.50;;;;;;5987269;23;93418;-71
2022/01/28 14:24:54;;;;;;;19.20;3.00;;;10.30;62.80;;;;;;5986235;23;92901;-74
2022/01/28 14:31:43;;;;;;;13.38;3.63;;;10.30;63.00;;;;;;5953516;23;93095;-73
2022/01/28 14:34:10;;;;;;;16.08;3.80;;;10.20;62.70;;;;;;5983610;23;94266;-74
2022/01/28 14:36:40;;;;;;;10.07;2.20;;;10.20;62.70;;;;;;5985420;23;93608;-77